sensor_id;sensor_type;location;lat;lon;timestamp;P1;durP1;ratioP1;P2;durP2;ratioP2
2406;SDS011;37709;53.480;9.688;2023-08-30T00:02:16;16.57;;;9.50;;
2406;SDS011;37709;53.480;9.688;2023-08-30T00:04:44;14.40;;;10.03;;
2406;SDS011;37709;53.480;9.688;2023-08-30T00:07:11;11.83;;;9.17;;
2406;SDS011;37709;53.480;9.688;2023-08-30T00:09:38;14.33;;;9.60;;
2406;SDS011;37709;53.480;9.688;2023-08-30T00:12:06;11.47;;;9.43;;
2406;SDS011;37709;53.480;9.688;2023-08-30T00:14:34;13.40;;;9.50;;
2406;SDS011;37709;53.480;9.688;2023-08-30T00:17:01;12.17;;;9.70;;
2406;SDS011;37709;53.480;9.688;2023-08-30T00:19:28;10.87;;;8.83;;
2406;SDS011;37709;53.480;9.688;2023-08-30T00:21:57;9.30;;;8.37;;
2406;SDS011;37709;53.480;9.688;2023-08-30T00:24:25;11.77;;;9.10;;
2406;SDS011;37709;53.480;9.688;2023-08-30T00:26:53;11.47;;;9.00;;
2406;SDS011;37709;53.480;9.688;2023-08-30T00:32:14;10.13;;;9.13;;
2406;SDS011;37709;53.480;9.688;2023-08-30T00:34:41;12.13;;;8.90;;
2406;SDS011;37709;53.480;9.688;2023-08-30T00:37:09;12.50;;;8.93;;
2406;SDS011;37709;53.480;9.688;2023-08-30T00:39:39;11.53;;;9.40;;
2406;SDS011;37709;53.480;9.688;2023-08-30T00:42:07;13.20;;;9.77;;
2406;SDS011;37709;53.480;9.688;2023-08-30T00:44:35;11.57;;;10.17;;
2406;SDS011;37709;53.480;9.688;2023-08-30T00:47:02;12.80;;;9.60;;
2406;SDS011;37709;53.480;9.688;2023-08-30T00:49:33;15.40;;;10.73;;
2406;SDS011;37709;53.480;9.688;2023-08-30T00:52:01;10.17;;;9.17;;
2406;SDS011;37709;53.480;9.688;2023-08-30T00:54:32;11.30;;;10.10;;
2406;SDS011;37709;53.480;9.688;2023-08-30T00:57:00;13.03;;;10.50;;
2406;SDS011;37709;53.480;9.688;2023-08-30T00:59:32;17.53;;;10.50;;
2406;SDS011;37709;53.480;9.688;2023-08-30T01:02:00;10.97;;;9.17;;
2406;SDS011;37709;53.480;9.688;2023-08-30T01:04:29;12.77;;;10.30;;
2406;SDS011;37709;53.480;9.688;2023-08-30T01:06:56;15.13;;;11.83;;
2406;SDS011;37709;53.480;9.688;2023-08-30T01:09:26;19.03;;;12.70;;
2406;SDS011;37709;53.480;9.688;2023-08-30T01:11:57;15.33;;;11.00;;
2406;SDS011;37709;53.480;9.688;2023-08-30T01:14:44;13.00;;;10.67;;
2406;SDS011;37709;53.480;9.688;2023-08-30T01:17:19;14.37;;;11.40;;
2406;SDS011;37709;53.480;9.688;2023-08-30T01:20:00;13.07;;;11.30;;
2406;SDS011;37709;53.480;9.688;2023-08-30T01:23:08;17.27;;;11.93;;
2406;SDS011;37709;53.480;9.688;2023-08-30T01:26:03;12.00;;;10.40;;
2406;SDS011;37709;53.480;9.688;2023-08-30T01:28:42;14.80;;;11.23;;
2406;SDS011;37709;53.480;9.688;2023-08-30T01:31:09;17.17;;;11.80;;
2406;SDS011;37709;53.480;9.688;2023-08-30T01:33:39;11.77;;;10.57;;
2406;SDS011;37709;53.480;9.688;2023-08-30T01:36:07;14.83;;;10.77;;
2406;SDS011;37709;53.480;9.688;2023-08-30T01:38:36;16.80;;;11.90;;
2406;SDS011;37709;53.480;9.688;2023-08-30T01:41:04;18.03;;;11.93;;
2406;SDS011;37709;53.480;9.688;2023-08-30T01:43:32;13.10;;;10.37;;
2406;SDS011;37709;53.480;9.688;2023-08-30T01:46:00;14.07;;;11.23;;
2406;SDS011;37709;53.480;9.688;2023-08-30T01:48:29;19.53;;;11.53;;
2406;SDS011;37709;53.480;9.688;2023-08-30T01:51:00;13.37;;;9.93;;
2406;SDS011;37709;53.480;9.688;2023-08-30T01:53:29;13.07;;;11.07;;
2406;SDS011;37709;53.480;9.688;2023-08-30T01:55:58;13.10;;;10.50;;
2406;SDS011;37709;53.480;9.688;2023-08-30T01:58:26;15.47;;;11.87;;
2406;SDS011;37709;53.480;9.688;2023-08-30T02:00:53;22.83;;;11.70;;
2406;SDS011;37709;53.480;9.688;2023-08-30T02:03:22;16.53;;;10.63;;
2406;SDS011;37709;53.480;9.688;2023-08-30T02:06:06;12.83;;;10.77;;
2406;SDS011;37709;53.480;9.688;2023-08-30T02:08:49;13.27;;;11.70;;
2406;SDS011;37709;53.480;9.688;2023-08-30T02:11:23;16.60;;;11.53;;
2406;SDS011;37709;53.480;9.688;2023-08-30T02:13:54;13.90;;;11.80;;
2406;SDS011;37709;53.480;9.688;2023-08-30T02:16:25;20.60;;;13.00;;
2406;SDS011;37709;53.480;9.688;2023-08-30T02:18:55;28.00;;;13.20;;
2406;SDS011;37709;53.480;9.688;2023-08-30T02:21:23;17.00;;;12.90;;
2406;SDS011;37709;53.480;9.688;2023-08-30T02:23:50;17.23;;;13.80;;
2406;SDS011;37709;53.480;9.688;2023-08-30T02:26:19;16.83;;;12.60;;
2406;SDS011;37709;53.480;9.688;2023-08-30T02:28:47;22.33;;;14.00;;
2406;SDS011;37709;53.480;9.688;2023-08-30T02:31:15;15.30;;;13.70;;
2406;SDS011;37709;53.480;9.688;2023-08-30T02:33:45;17.10;;;13.43;;
2406;SDS011;37709;53.480;9.688;2023-08-30T02:36:12;25.33;;;17.23;;
2406;SDS011;37709;53.480;9.688;2023-08-30T02:38:39;20.20;;;15.40;;
2406;SDS011;37709;53.480;9.688;2023-08-30T02:41:06;30.40;;;16.13;;
2406;SDS011;37709;53.480;9.688;2023-08-30T02:43:35;17.77;;;15.20;;
2406;SDS011;37709;53.480;9.688;2023-08-30T02:46:02;18.90;;;15.23;;
2406;SDS011;37709;53.480;9.688;2023-08-30T02:48:31;22.10;;;16.07;;
2406;SDS011;37709;53.480;9.688;2023-08-30T02:50:59;24.57;;;17.70;;
2406;SDS011;37709;53.480;9.688;2023-08-30T02:53:26;16.33;;;14.67;;
2406;SDS011;37709;53.480;9.688;2023-08-30T02:55:54;23.13;;;16.70;;
2406;SDS011;37709;53.480;9.688;2023-08-30T02:58:22;21.40;;;15.60;;
2406;SDS011;37709;53.480;9.688;2023-08-30T03:00:56;20.90;;;15.03;;
2406;SDS011;37709;53.480;9.688;2023-08-30T03:03:23;19.10;;;14.10;;
2406;SDS011;37709;53.480;9.688;2023-08-30T03:05:50;14.47;;;12.97;;
2406;SDS011;37709;53.480;9.688;2023-08-30T03:08:18;20.93;;;14.23;;
2406;SDS011;37709;53.480;9.688;2023-08-30T03:10:46;14.53;;;13.07;;
2406;SDS011;37709;53.480;9.688;2023-08-30T03:13:14;14.27;;;12.47;;
2406;SDS011;37709;53.480;9.688;2023-08-30T03:15:42;16.50;;;12.20;;
2406;SDS011;37709;53.480;9.688;2023-08-30T03:18:09;16.13;;;12.47;;
2406;SDS011;37709;53.480;9.688;2023-08-30T03:20:38;15.37;;;11.37;;
2406;SDS011;37709;53.480;9.688;2023-08-30T03:23:06;13.20;;;11.90;;
2406;SDS011;37709;53.480;9.688;2023-08-30T03:25:34;13.90;;;11.77;;
2406;SDS011;37709;53.480;9.688;2023-08-30T03:28:01;13.00;;;11.40;;
2406;SDS011;37709;53.480;9.688;2023-08-30T03:30:32;16.57;;;12.47;;
2406;SDS011;37709;53.480;9.688;2023-08-30T03:33:00;13.27;;;11.93;;
2406;SDS011;37709;53.480;9.688;2023-08-30T03:35:33;15.73;;;12.33;;
2406;SDS011;37709;53.480;9.688;2023-08-30T03:38:02;14.73;;;11.90;;
2406;SDS011;37709;53.480;9.688;2023-08-30T03:40:30;14.70;;;12.07;;
2406;SDS011;37709;53.480;9.688;2023-08-30T03:42:58;14.40;;;12.73;;
2406;SDS011;37709;53.480;9.688;2023-08-30T03:45:25;15.57;;;12.10;;
2406;SDS011;37709;53.480;9.688;2023-08-30T03:47:53;16.70;;;13.47;;
2406;SDS011;37709;53.480;9.688;2023-08-30T03:50:22;13.37;;;12.07;;
2406;SDS011;37709;53.480;9.688;2023-08-30T03:52:49;14.13;;;12.73;;
2406;SDS011;37709;53.480;9.688;2023-08-30T03:55:17;16.90;;;13.50;;
2406;SDS011;37709;53.480;9.688;2023-08-30T03:57:44;13.23;;;12.03;;
2406;SDS011;37709;53.480;9.688;2023-08-30T04:00:12;14.40;;;12.80;;
2406;SDS011;37709;53.480;9.688;2023-08-30T04:02:40;17.37;;;11.97;;
2406;SDS011;37709;53.480;9.688;2023-08-30T04:05:08;13.93;;;12.50;;
2406;SDS011;37709;53.480;9.688;2023-08-30T04:07:37;14.27;;;12.77;;
2406;SDS011;37709;53.480;9.688;2023-08-30T04:10:08;16.70;;;13.40;;
2406;SDS011;37709;53.480;9.688;2023-08-30T04:12:35;14.77;;;13.27;;
2406;SDS011;37709;53.480;9.688;2023-08-30T04:15:04;13.87;;;11.90;;
2406;SDS011;37709;53.480;9.688;2023-08-30T04:17:33;18.40;;;14.27;;
2406;SDS011;37709;53.480;9.688;2023-08-30T04:20:01;14.80;;;13.10;;
2406;SDS011;37709;53.480;9.688;2023-08-30T04:22:32;14.50;;;13.10;;
2406;SDS011;37709;53.480;9.688;2023-08-30T04:25:03;14.53;;;13.13;;
2406;SDS011;37709;53.480;9.688;2023-08-30T04:27:31;17.47;;;13.50;;
2406;SDS011;37709;53.480;9.688;2023-08-30T04:29:58;16.13;;;13.70;;
2406;SDS011;37709;53.480;9.688;2023-08-30T04:32:26;14.83;;;13.40;;
2406;SDS011;37709;53.480;9.688;2023-08-30T04:34:53;14.87;;;13.40;;
2406;SDS011;37709;53.480;9.688;2023-08-30T04:37:22;15.80;;;14.20;;
2406;SDS011;37709;53.480;9.688;2023-08-30T04:39:50;16.80;;;14.80;;
2406;SDS011;37709;53.480;9.688;2023-08-30T04:42:17;15.50;;;13.93;;
2406;SDS011;37709;53.480;9.688;2023-08-30T04:47:38;15.70;;;14.10;;
2406;SDS011;37709;53.480;9.688;2023-08-30T04:50:06;15.77;;;14.07;;
2406;SDS011;37709;53.480;9.688;2023-08-30T04:52:34;16.07;;;14.47;;
2406;SDS011;37709;53.480;9.688;2023-08-30T04:55:08;15.90;;;14.43;;
2406;SDS011;37709;53.480;9.688;2023-08-30T04:57:37;15.57;;;14.07;;
2406;SDS011;37709;53.480;9.688;2023-08-30T05:00:05;14.57;;;13.23;;
2406;SDS011;37709;53.480;9.688;2023-08-30T05:02:35;15.17;;;13.67;;
2406;SDS011;37709;53.480;9.688;2023-08-30T05:05:06;16.07;;;14.57;;
2406;SDS011;37709;53.480;9.688;2023-08-30T05:07:34;14.70;;;12.83;;
2406;SDS011;37709;53.480;9.688;2023-08-30T05:10:03;15.33;;;13.83;;
2406;SDS011;37709;53.480;9.688;2023-08-30T05:12:35;15.10;;;13.53;;
2406;SDS011;37709;53.480;9.688;2023-08-30T05:15:04;14.17;;;12.87;;
2406;SDS011;37709;53.480;9.688;2023-08-30T05:17:33;14.33;;;12.97;;
2406;SDS011;37709;53.480;9.688;2023-08-30T05:20:01;14.37;;;12.97;;
2406;SDS011;37709;53.480;9.688;2023-08-30T05:22:29;14.73;;;12.53;;
2406;SDS011;37709;53.480;9.688;2023-08-30T05:27:51;14.10;;;12.80;;
2406;SDS011;37709;53.480;9.688;2023-08-30T05:30:19;13.00;;;11.80;;
2406;SDS011;37709;53.480;9.688;2023-08-30T05:32:52;13.43;;;12.13;;
2406;SDS011;37709;53.480;9.688;2023-08-30T05:35:37;12.50;;;11.40;;
2406;SDS011;37709;53.480;9.688;2023-08-30T05:38:25;13.23;;;11.87;;
2406;SDS011;37709;53.480;9.688;2023-08-30T05:41:06;12.50;;;11.40;;
2406;SDS011;37709;53.480;9.688;2023-08-30T05:43:33;12.90;;;11.80;;
2406;SDS011;37709;53.480;9.688;2023-08-30T05:46:03;12.10;;;10.90;;
2406;SDS011;37709;53.480;9.688;2023-08-30T05:48:30;11.80;;;10.70;;
2406;SDS011;37709;53.480;9.688;2023-08-30T05:50:59;12.03;;;10.93;;
2406;SDS011;37709;53.480;9.688;2023-08-30T05:53:26;12.10;;;11.00;;
2406;SDS011;37709;53.480;9.688;2023-08-30T05:55:54;12.03;;;10.90;;
2406;SDS011;37709;53.480;9.688;2023-08-30T05:58:21;11.43;;;10.30;;
2406;SDS011;37709;53.480;9.688;2023-08-30T06:00:50;11.20;;;10.20;;
2406;SDS011;37709;53.480;9.688;2023-08-30T06:03:18;13.73;;;10.17;;
2406;SDS011;37709;53.480;9.688;2023-08-30T06:05:46;11.07;;;10.07;;
2406;SDS011;37709;53.480;9.688;2023-08-30T06:08:18;11.43;;;10.43;;
2406;SDS011;37709;53.480;9.688;2023-08-30T06:10:46;10.53;;;9.73;;
2406;SDS011;37709;53.480;9.688;2023-08-30T06:13:15;9.93;;;8.93;;
2406;SDS011;37709;53.480;9.688;2023-08-30T06:15:42;10.63;;;9.63;;
2406;SDS011;37709;53.480;9.688;2023-08-30T06:18:12;9.63;;;8.87;;
2406;SDS011;37709;53.480;9.688;2023-08-30T06:20:40;9.38;;;8.57;;
2406;SDS011;37709;53.480;9.688;2023-08-30T06:23:08;9.80;;;9.00;;
2406;SDS011;37709;53.480;9.688;2023-08-30T06:25:36;9.43;;;8.73;;
2406;SDS011;37709;53.480;9.688;2023-08-30T06:28:04;9.20;;;8.40;;
2406;SDS011;37709;53.480;9.688;2023-08-30T06:30:31;9.40;;;8.60;;
2406;SDS011;37709;53.480;9.688;2023-08-30T06:32:59;8.20;;;7.43;;
2406;SDS011;37709;53.480;9.688;2023-08-30T06:35:27;8.90;;;7.97;;
2406;SDS011;37709;53.480;9.688;2023-08-30T06:37:54;9.37;;;8.30;;
2406;SDS011;37709;53.480;9.688;2023-08-30T06:40:22;9.30;;;8.50;;
2406;SDS011;37709;53.480;9.688;2023-08-30T06:42:50;9.00;;;8.37;;
2406;SDS011;37709;53.480;9.688;2023-08-30T06:45:18;9.37;;;8.67;;
2406;SDS011;37709;53.480;9.688;2023-08-30T06:47:47;9.27;;;8.47;;
2406;SDS011;37709;53.480;9.688;2023-08-30T06:50:15;8.57;;;7.87;;
2406;SDS011;37709;53.480;9.688;2023-08-30T06:52:43;9.93;;;9.13;;
2406;SDS011;37709;53.480;9.688;2023-08-30T06:55:10;9.50;;;8.73;;
2406;SDS011;37709;53.480;9.688;2023-08-30T06:57:40;10.57;;;9.57;;
2406;SDS011;37709;53.480;9.688;2023-08-30T07:00:08;9.40;;;8.60;;
2406;SDS011;37709;53.480;9.688;2023-08-30T07:02:37;10.30;;;9.30;;
2406;SDS011;37709;53.480;9.688;2023-08-30T07:05:04;10.40;;;9.43;;
2406;SDS011;37709;53.480;9.688;2023-08-30T07:07:34;9.23;;;8.50;;
2406;SDS011;37709;53.480;9.688;2023-08-30T07:10:04;9.37;;;8.60;;
2406;SDS011;37709;53.480;9.688;2023-08-30T07:12:32;9.83;;;9.00;;
2406;SDS011;37709;53.480;9.688;2023-08-30T07:14:59;10.53;;;9.63;;
2406;SDS011;37709;53.480;9.688;2023-08-30T07:17:27;9.37;;;8.60;;
2406;SDS011;37709;53.480;9.688;2023-08-30T07:20:12;10.27;;;9.47;;
2406;SDS011;37709;53.480;9.688;2023-08-30T07:22:40;9.43;;;8.70;;
2406;SDS011;37709;53.480;9.688;2023-08-30T07:25:07;9.23;;;8.53;;
2406;SDS011;37709;53.480;9.688;2023-08-30T07:27:36;10.60;;;9.13;;
2406;SDS011;37709;53.480;9.688;2023-08-30T07:30:04;9.17;;;8.43;;
2406;SDS011;37709;53.480;9.688;2023-08-30T07:32:32;8.17;;;7.47;;
2406;SDS011;37709;53.480;9.688;2023-08-30T07:35:03;9.90;;;9.10;;
2406;SDS011;37709;53.480;9.688;2023-08-30T07:37:32;10.13;;;8.50;;
2406;SDS011;37709;53.480;9.688;2023-08-30T07:40:00;9.70;;;8.90;;
2406;SDS011;37709;53.480;9.688;2023-08-30T07:42:31;11.67;;;7.67;;
2406;SDS011;37709;53.480;9.688;2023-08-30T07:44:59;9.07;;;8.37;;
2406;SDS011;37709;53.480;9.688;2023-08-30T07:47:27;8.53;;;7.83;;
2406;SDS011;37709;53.480;9.688;2023-08-30T07:49:54;9.20;;;8.40;;
2406;SDS011;37709;53.480;9.688;2023-08-30T07:52:22;8.67;;;7.97;;
2406;SDS011;37709;53.480;9.688;2023-08-30T07:55:09;8.97;;;8.23;;
2406;SDS011;37709;53.480;9.688;2023-08-30T07:57:37;7.90;;;7.30;;
2406;SDS011;37709;53.480;9.688;2023-08-30T08:00:05;8.87;;;8.00;;
2406;SDS011;37709;53.480;9.688;2023-08-30T08:02:39;8.57;;;7.80;;
2406;SDS011;37709;53.480;9.688;2023-08-30T08:05:08;8.67;;;7.87;;
2406;SDS011;37709;53.480;9.688;2023-08-30T08:07:38;7.73;;;7.13;;
2406;SDS011;37709;53.480;9.688;2023-08-30T08:10:07;8.40;;;7.70;;
2406;SDS011;37709;53.480;9.688;2023-08-30T08:12:34;8.37;;;7.77;;
2406;SDS011;37709;53.480;9.688;2023-08-30T08:15:02;7.73;;;7.13;;
2406;SDS011;37709;53.480;9.688;2023-08-30T08:17:31;7.10;;;6.47;;
2406;SDS011;37709;53.480;9.688;2023-08-30T08:19:58;7.63;;;7.03;;
2406;SDS011;37709;53.480;9.688;2023-08-30T08:22:25;7.57;;;6.87;;
2406;SDS011;37709;53.480;9.688;2023-08-30T08:24:53;7.80;;;7.10;;
2406;SDS011;37709;53.480;9.688;2023-08-30T08:27:26;7.90;;;7.10;;
2406;SDS011;37709;53.480;9.688;2023-08-30T08:29:54;7.67;;;7.07;;
2406;SDS011;37709;53.480;9.688;2023-08-30T08:32:23;8.47;;;7.73;;
2406;SDS011;37709;53.480;9.688;2023-08-30T08:34:51;7.63;;;7.03;;
2406;SDS011;37709;53.480;9.688;2023-08-30T08:37:18;7.70;;;7.00;;
2406;SDS011;37709;53.480;9.688;2023-08-30T08:39:48;6.87;;;6.37;;
2406;SDS011;37709;53.480;9.688;2023-08-30T08:42:19;7.53;;;6.43;;
2406;SDS011;37709;53.480;9.688;2023-08-30T08:44:53;6.47;;;5.97;;
2406;SDS011;37709;53.480;9.688;2023-08-30T08:47:20;5.53;;;5.13;;
2406;SDS011;37709;53.480;9.688;2023-08-30T08:49:50;6.23;;;5.73;;
2406;SDS011;37709;53.480;9.688;2023-08-30T08:52:17;6.10;;;5.53;;
2406;SDS011;37709;53.480;9.688;2023-08-30T08:54:57;6.20;;;5.70;;
2406;SDS011;37709;53.480;9.688;2023-08-30T08:57:26;6.13;;;5.63;;
2406;SDS011;37709;53.480;9.688;2023-08-30T08:59:58;5.60;;;5.20;;
2406;SDS011;37709;53.480;9.688;2023-08-30T09:02:29;5.43;;;4.93;;
2406;SDS011;37709;53.480;9.688;2023-08-30T09:04:56;5.33;;;4.93;;
2406;SDS011;37709;53.480;9.688;2023-08-30T09:07:27;6.17;;;5.03;;
2406;SDS011;37709;53.480;9.688;2023-08-30T09:09:55;5.80;;;5.17;;
2406;SDS011;37709;53.480;9.688;2023-08-30T09:12:24;5.93;;;5.47;;
2406;SDS011;37709;53.480;9.688;2023-08-30T09:14:57;6.30;;;5.77;;
2406;SDS011;37709;53.480;9.688;2023-08-30T09:17:38;5.10;;;4.70;;
2406;SDS011;37709;53.480;9.688;2023-08-30T09:20:10;5.73;;;5.20;;
2406;SDS011;37709;53.480;9.688;2023-08-30T09:22:41;6.30;;;5.80;;
2406;SDS011;37709;53.480;9.688;2023-08-30T09:25:10;6.50;;;5.90;;
2406;SDS011;37709;53.480;9.688;2023-08-30T09:27:48;6.10;;;5.60;;
2406;SDS011;37709;53.480;9.688;2023-08-30T09:30:22;5.40;;;4.90;;
2406;SDS011;37709;53.480;9.688;2023-08-30T09:32:49;6.20;;;5.70;;
2406;SDS011;37709;53.480;9.688;2023-08-30T09:35:18;5.47;;;5.07;;
2406;SDS011;37709;53.480;9.688;2023-08-30T09:37:45;5.40;;;4.90;;
2406;SDS011;37709;53.480;9.688;2023-08-30T09:40:18;6.37;;;5.87;;
2406;SDS011;37709;53.480;9.688;2023-08-30T09:42:46;5.97;;;5.47;;
2406;SDS011;37709;53.480;9.688;2023-08-30T09:45:34;8.23;;;5.37;;
2406;SDS011;37709;53.480;9.688;2023-08-30T09:48:01;5.60;;;5.10;;
2406;SDS011;37709;53.480;9.688;2023-08-30T09:50:29;5.90;;;4.67;;
2406;SDS011;37709;53.480;9.688;2023-08-30T09:55:56;4.93;;;4.40;;
2406;SDS011;37709;53.480;9.688;2023-08-30T09:58:25;5.00;;;4.60;;
2406;SDS011;37709;53.480;9.688;2023-08-30T10:00:54;4.73;;;4.43;;
2406;SDS011;37709;53.480;9.688;2023-08-30T10:03:23;5.47;;;4.77;;
2406;SDS011;37709;53.480;9.688;2023-08-30T10:05:58;5.00;;;4.57;;
2406;SDS011;37709;53.480;9.688;2023-08-30T10:08:33;5.23;;;4.80;;
2406;SDS011;37709;53.480;9.688;2023-08-30T10:11:01;6.13;;;5.43;;
2406;SDS011;37709;53.480;9.688;2023-08-30T10:13:30;5.30;;;4.80;;
2406;SDS011;37709;53.480;9.688;2023-08-30T10:16:00;4.97;;;4.57;;
2406;SDS011;37709;53.480;9.688;2023-08-30T10:18:31;4.43;;;4.03;;
2406;SDS011;37709;53.480;9.688;2023-08-30T10:20:59;5.07;;;4.67;;
2406;SDS011;37709;53.480;9.688;2023-08-30T10:23:29;5.83;;;4.33;;
2406;SDS011;37709;53.480;9.688;2023-08-30T10:25:57;5.00;;;3.93;;
2406;SDS011;37709;53.480;9.688;2023-08-30T10:28:26;4.40;;;4.00;;
2406;SDS011;37709;53.480;9.688;2023-08-30T10:30:57;5.47;;;4.93;;
2406;SDS011;37709;53.480;9.688;2023-08-30T10:33:25;5.80;;;5.30;;
2406;SDS011;37709;53.480;9.688;2023-08-30T10:35:53;4.67;;;4.23;;
2406;SDS011;37709;53.480;9.688;2023-08-30T10:41:19;4.67;;;4.10;;
2406;SDS011;37709;53.480;9.688;2023-08-30T10:43:50;5.30;;;4.90;;
2406;SDS011;37709;53.480;9.688;2023-08-30T10:46:31;5.83;;;5.30;;
2406;SDS011;37709;53.480;9.688;2023-08-30T10:49:08;7.07;;;4.27;;
2406;SDS011;37709;53.480;9.688;2023-08-30T10:51:38;5.43;;;4.67;;
2406;SDS011;37709;53.480;9.688;2023-08-30T10:54:10;5.60;;;5.10;;
2406;SDS011;37709;53.480;9.688;2023-08-30T10:56:56;5.40;;;4.90;;
2406;SDS011;37709;53.480;9.688;2023-08-30T10:59:27;5.03;;;4.57;;
2406;SDS011;37709;53.480;9.688;2023-08-30T11:01:56;5.10;;;4.60;;
2406;SDS011;37709;53.480;9.688;2023-08-30T11:04:27;4.43;;;4.03;;
2406;SDS011;37709;53.480;9.688;2023-08-30T11:06:55;4.90;;;4.50;;
2406;SDS011;37709;53.480;9.688;2023-08-30T11:09:23;5.23;;;4.73;;
2406;SDS011;37709;53.480;9.688;2023-08-30T11:11:53;4.30;;;3.90;;
2406;SDS011;37709;53.480;9.688;2023-08-30T11:14:21;5.47;;;4.07;;
2406;SDS011;37709;53.480;9.688;2023-08-30T11:16:48;5.70;;;5.30;;
2406;SDS011;37709;53.480;9.688;2023-08-30T11:19:16;5.47;;;4.87;;
2406;SDS011;37709;53.480;9.688;2023-08-30T11:21:44;4.97;;;4.60;;
2406;SDS011;37709;53.480;9.688;2023-08-30T11:24:12;4.40;;;4.10;;
2406;SDS011;37709;53.480;9.688;2023-08-30T11:26:40;6.40;;;4.10;;
2406;SDS011;37709;53.480;9.688;2023-08-30T11:29:07;4.10;;;3.70;;
2406;SDS011;37709;53.480;9.688;2023-08-30T11:31:36;4.27;;;3.87;;
2406;SDS011;37709;53.480;9.688;2023-08-30T11:34:03;4.60;;;4.13;;
2406;SDS011;37709;53.480;9.688;2023-08-30T11:36:31;5.00;;;4.50;;
2406;SDS011;37709;53.480;9.688;2023-08-30T11:41:56;5.27;;;4.77;;
2406;SDS011;37709;53.480;9.688;2023-08-30T11:44:35;4.73;;;4.33;;
2406;SDS011;37709;53.480;9.688;2023-08-30T11:47:03;4.07;;;3.77;;
2406;SDS011;37709;53.480;9.688;2023-08-30T11:49:31;4.87;;;4.47;;
2406;SDS011;37709;53.480;9.688;2023-08-30T11:52:03;5.27;;;4.80;;
2406;SDS011;37709;53.480;9.688;2023-08-30T11:54:31;6.00;;;5.40;;
2406;SDS011;37709;53.480;9.688;2023-08-30T11:57:01;4.30;;;3.90;;
2406;SDS011;37709;53.480;9.688;2023-08-30T11:59:29;4.20;;;3.80;;
2406;SDS011;37709;53.480;9.688;2023-08-30T12:02:03;6.00;;;5.50;;
2406;SDS011;37709;53.480;9.688;2023-08-30T12:04:39;6.03;;;5.40;;
2406;SDS011;37709;53.480;9.688;2023-08-30T12:07:39;5.73;;;4.47;;
2406;SDS011;37709;53.480;9.688;2023-08-30T12:10:07;5.60;;;5.10;;
2406;SDS011;37709;53.480;9.688;2023-08-30T12:12:37;5.70;;;4.60;;
2406;SDS011;37709;53.480;9.688;2023-08-30T12:15:08;6.60;;;5.80;;
2406;SDS011;37709;53.480;9.688;2023-08-30T12:17:40;7.83;;;5.53;;
2406;SDS011;37709;53.480;9.688;2023-08-30T12:20:14;4.20;;;3.90;;
2406;SDS011;37709;53.480;9.688;2023-08-30T12:23:19;4.80;;;4.40;;
2406;SDS011;37709;53.480;9.688;2023-08-30T12:26:09;4.97;;;3.93;;
2406;SDS011;37709;53.480;9.688;2023-08-30T12:28:38;4.43;;;4.03;;
2406;SDS011;37709;53.480;9.688;2023-08-30T12:31:07;3.80;;;3.50;;
2406;SDS011;37709;53.480;9.688;2023-08-30T12:33:35;4.23;;;3.83;;
2406;SDS011;37709;53.480;9.688;2023-08-30T12:36:03;7.60;;;5.20;;
2406;SDS011;37709;53.480;9.688;2023-08-30T12:41:24;5.33;;;4.63;;
2406;SDS011;37709;53.480;9.688;2023-08-30T12:43:51;3.70;;;3.40;;
2406;SDS011;37709;53.480;9.688;2023-08-30T12:46:19;3.63;;;3.33;;
2406;SDS011;37709;53.480;9.688;2023-08-30T12:48:47;4.47;;;4.07;;
2406;SDS011;37709;53.480;9.688;2023-08-30T12:51:14;4.40;;;4.10;;
2406;SDS011;37709;53.480;9.688;2023-08-30T12:53:42;4.90;;;4.07;;
2406;SDS011;37709;53.480;9.688;2023-08-30T12:56:09;5.80;;;4.13;;
2406;SDS011;37709;53.480;9.688;2023-08-30T12:58:36;6.20;;;4.50;;
2406;SDS011;37709;53.480;9.688;2023-08-30T13:01:04;5.40;;;4.20;;
2406;SDS011;37709;53.480;9.688;2023-08-30T13:03:32;3.93;;;3.20;;
2406;SDS011;37709;53.480;9.688;2023-08-30T13:06:00;6.00;;;3.97;;
2406;SDS011;37709;53.480;9.688;2023-08-30T13:08:28;6.30;;;3.60;;
2406;SDS011;37709;53.480;9.688;2023-08-30T13:10:58;3.97;;;3.67;;
2406;SDS011;37709;53.480;9.688;2023-08-30T13:13:26;3.90;;;3.37;;
2406;SDS011;37709;53.480;9.688;2023-08-30T13:15:53;5.07;;;3.50;;
2406;SDS011;37709;53.480;9.688;2023-08-30T13:18:21;3.60;;;3.30;;
2406;SDS011;37709;53.480;9.688;2023-08-30T13:20:49;3.40;;;3.10;;
2406;SDS011;37709;53.480;9.688;2023-08-30T13:23:16;3.00;;;2.80;;
2406;SDS011;37709;53.480;9.688;2023-08-30T13:25:43;3.53;;;3.03;;
2406;SDS011;37709;53.480;9.688;2023-08-30T13:28:11;3.30;;;3.00;;
2406;SDS011;37709;53.480;9.688;2023-08-30T13:30:43;5.00;;;3.30;;
2406;SDS011;37709;53.480;9.688;2023-08-30T13:33:12;3.77;;;3.47;;
2406;SDS011;37709;53.480;9.688;2023-08-30T13:35:40;3.43;;;3.13;;
2406;SDS011;37709;53.480;9.688;2023-08-30T13:38:08;3.97;;;3.57;;
2406;SDS011;37709;53.480;9.688;2023-08-30T13:40:36;6.00;;;4.23;;
2406;SDS011;37709;53.480;9.688;2023-08-30T13:43:03;3.67;;;3.37;;
2406;SDS011;37709;53.480;9.688;2023-08-30T13:45:30;3.20;;;2.90;;
2406;SDS011;37709;53.480;9.688;2023-08-30T13:47:58;4.37;;;3.47;;
2406;SDS011;37709;53.480;9.688;2023-08-30T13:50:26;3.97;;;3.57;;
2406;SDS011;37709;53.480;9.688;2023-08-30T13:52:57;5.30;;;3.17;;
2406;SDS011;37709;53.480;9.688;2023-08-30T13:55:25;3.50;;;3.20;;
2406;SDS011;37709;53.480;9.688;2023-08-30T13:57:53;3.80;;;3.20;;
2406;SDS011;37709;53.480;9.688;2023-08-30T14:00:20;4.17;;;3.83;;
2406;SDS011;37709;53.480;9.688;2023-08-30T14:02:51;4.03;;;3.63;;
2406;SDS011;37709;53.480;9.688;2023-08-30T14:05:19;3.30;;;3.00;;
2406;SDS011;37709;53.480;9.688;2023-08-30T14:07:47;8.80;;;3.57;;
2406;SDS011;37709;53.480;9.688;2023-08-30T14:13:07;3.50;;;3.20;;
2406;SDS011;37709;53.480;9.688;2023-08-30T14:15:35;3.80;;;3.33;;
2406;SDS011;37709;53.480;9.688;2023-08-30T14:18:03;3.77;;;3.47;;
2406;SDS011;37709;53.480;9.688;2023-08-30T14:20:31;5.87;;;3.30;;
2406;SDS011;37709;53.480;9.688;2023-08-30T14:22:58;3.97;;;3.63;;
2406;SDS011;37709;53.480;9.688;2023-08-30T14:25:26;4.80;;;3.20;;
2406;SDS011;37709;53.480;9.688;2023-08-30T14:27:54;3.97;;;3.57;;
2406;SDS011;37709;53.480;9.688;2023-08-30T14:30:22;3.73;;;3.43;;
2406;SDS011;37709;53.480;9.688;2023-08-30T14:32:50;4.20;;;3.80;;
2406;SDS011;37709;53.480;9.688;2023-08-30T14:35:18;3.80;;;3.47;;
2406;SDS011;37709;53.480;9.688;2023-08-30T14:37:47;5.83;;;3.47;;
2406;SDS011;37709;53.480;9.688;2023-08-30T14:40:15;3.63;;;3.33;;
2406;SDS011;37709;53.480;9.688;2023-08-30T14:42:43;4.77;;;4.37;;
2406;SDS011;37709;53.480;9.688;2023-08-30T14:45:10;4.57;;;3.90;;
2406;SDS011;37709;53.480;9.688;2023-08-30T14:47:38;4.27;;;3.97;;
2406;SDS011;37709;53.480;9.688;2023-08-30T14:50:06;6.07;;;3.90;;
2406;SDS011;37709;53.480;9.688;2023-08-30T14:52:35;5.33;;;4.10;;
2406;SDS011;37709;53.480;9.688;2023-08-30T14:55:02;3.83;;;3.40;;
2406;SDS011;37709;53.480;9.688;2023-08-30T14:57:31;5.10;;;3.83;;
2406;SDS011;37709;53.480;9.688;2023-08-30T15:00:04;5.03;;;4.53;;
2406;SDS011;37709;53.480;9.688;2023-08-30T15:02:32;5.30;;;4.10;;
2406;SDS011;37709;53.480;9.688;2023-08-30T15:04:59;4.60;;;4.20;;
2406;SDS011;37709;53.480;9.688;2023-08-30T15:07:28;5.63;;;4.77;;
2406;SDS011;37709;53.480;9.688;2023-08-30T15:09:56;4.90;;;4.40;;
2406;SDS011;37709;53.480;9.688;2023-08-30T15:12:24;5.73;;;4.97;;
2406;SDS011;37709;53.480;9.688;2023-08-30T15:14:51;6.63;;;5.93;;
2406;SDS011;37709;53.480;9.688;2023-08-30T15:17:20;7.73;;;6.90;;
2406;SDS011;37709;53.480;9.688;2023-08-30T15:19:48;8.60;;;7.80;;
2406;SDS011;37709;53.480;9.688;2023-08-30T15:22:15;8.50;;;7.80;;
2406;SDS011;37709;53.480;9.688;2023-08-30T15:24:42;7.87;;;7.30;;
2406;SDS011;37709;53.480;9.688;2023-08-30T15:27:10;8.40;;;7.60;;
2406;SDS011;37709;53.480;9.688;2023-08-30T15:29:37;8.30;;;7.70;;